Time;durP1;ratioP1;P1;durP2;ratioP2;P2;SDS_P1;SDS_P2;PMS_P1;PMS_P2;Temp;Humidity;BMP_temperature;BMP_pressure;BME280_temperature;BME280_humidity;BME280_pressure;Samples;Min_cycle;Max_cycle;Signal;HPM_P1;HPM_P2
2021/11/03 00:01:28;;;;;;;7.47;4.15;;;;;;;;;;5027295;28;20029;-66
2021/11/03 00:04:13;;;;;;;7.53;3.95;;;;;;;;;;5050335;28;20124;-66
2021/11/03 00:06:59;;;;;;;8.57;3.95;;;;;;;;;;5047351;28;20032;-65
2021/11/03 00:09:44;;;;;;;9.38;4.82;;;;;;;;;;5049376;28;20036;-65
2021/11/03 00:12:30;;;;;;;5.45;3.65;;;;;;;;;;5048904;28;20060;-66
2021/11/03 00:15:16;;;;;;;8.15;3.80;;;;;;;;;;5049056;28;20108;-69
2021/11/03 00:18:01;;;;;;;6.18;4.47;;;;;;;;;;5049915;28;20029;-66
2021/11/03 00:20:47;;;;;;;7.40;4.45;;;;;;;;;;5034051;28;20039;-67
2021/11/03 00:23:33;;;;;;;7.43;4.03;;;;;;;;;;5057757;28;20060;-66
2021/11/03 00:26:18;;;;;;;8.85;4.65;;;;;;;;;;5040431;28;20033;-64
2021/11/03 00:29:04;;;;;;;6.85;4.75;;;;;;;;;;5047310;28;20059;-65
2021/11/03 00:31:49;;;;;;;6.35;4.50;;;;;;;;;;5048686;28;20029;-65
2021/11/03 00:34:34;;;;;;;7.90;4.18;;;;;;;;;;5026783;28;20112;-63
2021/11/03 00:37:20;;;;;;;8.20;5.40;;;;;;;;;;5039946;28;20056;-68
2021/11/03 00:40:06;;;;;;;5.95;4.05;;;;;;;;;;5035257;28;20115;-68
2021/11/03 00:42:51;;;;;;;6.30;4.25;;;;;;;;;;5024925;28;20084;-68
2021/11/03 00:45:36;;;;;;;10.20;5.00;;;;;;;;;;5035545;28;20082;-67
2021/11/03 00:48:21;;;;;;;7.25;5.15;;;;;;;;;;5042847;28;20040;-67
2021/11/03 00:51:07;;;;;;;7.50;4.70;;;;;;;;;;5038136;28;20422;-67
2021/11/03 00:53:52;;;;;;;8.85;5.40;;;;;;;;;;5047324;28;20025;-65
2021/11/03 00:56:38;;;;;;;8.48;4.50;;;;;;;;;;5048719;28;20502;-69
2021/11/03 00:59:23;;;;;;;9.30;5.10;;;;;;;;;;5046478;28;20048;-67
2021/11/03 01:02:08;;;;;;;9.07;5.47;;;;;;;;;;5042321;28;20017;-68
2021/11/03 01:04:54;;;;;;;12.05;6.43;;;;;;;;;;5062611;28;20067;-68
2021/11/03 01:07:39;;;;;;;7.80;4.82;;;;;;;;;;5040433;28;20040;-67
2021/11/03 01:10:24;;;;;;;8.45;5.68;;;;;;;;;;5048988;28;20025;-64
2021/11/03 01:13:10;;;;;;;9.18;4.65;;;;;;;;;;5035211;28;20421;-69
2021/11/03 01:15:58;;;;;;;6.70;4.70;;;;;;;;;;5033054;28;20048;-65
2021/11/03 01:18:43;;;;;;;9.02;5.28;;;;;;;;;;5027618;28;20037;-65
2021/11/03 01:21:28;;;;;;;7.13;4.60;;;;;;;;;;5011969;28;20068;-67
2021/11/03 01:24:14;;;;;;;7.57;5.00;;;;;;;;;;5005518;28;20375;-64
2021/11/03 01:26:59;;;;;;;8.57;5.50;;;;;;;;;;5002688;28;20037;-65
2021/11/03 01:29:44;;;;;;;8.18;5.28;;;;;;;;;;5013157;28;20029;-64
2021/11/03 01:32:29;;;;;;;8.55;5.78;;;;;;;;;;5015139;28;20032;-62
2021/11/03 01:35:15;;;;;;;6.85;4.93;;;;;;;;;;5006848;28;20112;-61
2021/11/03 01:38:00;;;;;;;7.95;4.80;;;;;;;;;;5017123;28;20037;-61
2021/11/03 01:40:46;;;;;;;7.43;5.57;;;;;;;;;;5011869;28;20079;-62
2021/11/03 01:43:32;;;;;;;8.73;5.05;;;;;;;;;;5027401;28;20614;-61
2021/11/03 01:46:23;;;;;;;8.07;4.80;;;;;;;;;;5013785;28;20062;-66
2021/11/03 01:49:14;;;;;;;10.52;5.53;;;;;;;;;;5016564;28;20033;-66
2021/11/03 01:51:59;;;;;;;8.32;4.65;;;;;;;;;;5006892;28;20554;-62
2021/11/03 01:54:52;;;;;;;9.40;5.45;;;;;;;;;;5006658;28;20052;-61
2021/11/03 01:57:41;;;;;;;9.90;5.35;;;;;;;;;;5015073;28;20440;-63
2021/11/03 02:00:28;;;;;;;8.48;5.82;;;;;;;;;;5013727;28;20033;-64
2021/11/03 02:03:15;;;;;;;8.05;4.95;;;;;;;;;;5013621;28;20029;-63
2021/11/03 02:06:06;;;;;;;9.07;5.43;;;;;;;;;;5002862;28;20496;-63
2021/11/03 02:08:53;;;;;;;8.23;5.22;;;;;;;;;;5008455;28;20385;-61
2021/11/03 02:11:38;;;;;;;14.73;5.20;;;;;;;;;;5009543;28;20480;-60
2021/11/03 02:14:23;;;;;;;7.43;3.95;;;;;;;;;;5011525;28;20493;-60
2021/11/03 02:17:09;;;;;;;9.68;5.25;;;;;;;;;;5011327;28;20037;-61
2021/11/03 02:19:55;;;;;;;9.02;5.18;;;;;;;;;;5010878;28;20072;-63
2021/11/03 02:22:46;;;;;;;8.40;4.85;;;;;;;;;;5012632;28;20030;-63
2021/11/03 02:25:34;;;;;;;8.68;4.82;;;;;;;;;;5009075;28;20033;-62
2021/11/03 02:28:21;;;;;;;7.82;4.18;;;;;;;;;;5000837;28;20052;-66
2021/11/03 02:31:06;;;;;;;7.25;4.60;;;;;;;;;;5001943;28;20026;-67
2021/11/03 02:33:51;;;;;;;9.40;5.47;;;;;;;;;;5003997;28;20032;-66
2021/11/03 02:36:55;;;;;;;7.75;5.38;;;;;;;;;;5014342;28;20461;-65
2021/11/03 02:39:44;;;;;;;6.07;4.15;;;;;;;;;;5016080;28;20130;-66
2021/11/03 02:42:32;;;;;;;8.25;4.68;;;;;;;;;;5011210;28;20376;-61
2021/11/03 02:45:26;;;;;;;7.63;4.38;;;;;;;;;;5016349;28;20034;-63
2021/11/03 02:48:13;;;;;;;9.05;4.93;;;;;;;;;;5013003;28;20080;-61
2021/11/03 02:51:00;;;;;;;7.53;4.90;;;;;;;;;;5016698;28;20061;-61
2021/11/03 02:53:46;;;;;;;6.90;4.32;;;;;;;;;;5017756;28;20045;-61
2021/11/03 02:56:33;;;;;;;9.93;4.95;;;;;;;;;;5008834;28;20116;-63
2021/11/03 02:59:19;;;;;;;17.25;5.75;;;;;;;;;;5016532;28;20498;-62
2021/11/03 03:02:05;;;;;;;10.05;5.53;;;;;;;;;;5011808;28;20028;-61
2021/11/03 03:04:52;;;;;;;6.32;4.80;;;;;;;;;;5031681;28;20080;-61
2021/11/03 03:07:37;;;;;;;6.45;4.47;;;;;;;;;;5012655;28;20033;-60
2021/11/03 03:10:22;;;;;;;8.40;4.28;;;;;;;;;;5004487;28;20037;-60
2021/11/03 03:13:08;;;;;;;7.35;5.00;;;;;;;;;;5013714;28;20056;-61
2021/11/03 03:15:53;;;;;;;6.93;4.45;;;;;;;;;;5028770;28;20045;-60
2021/11/03 03:18:38;;;;;;;7.80;4.78;;;;;;;;;;5013958;28;20041;-60
2021/11/03 03:21:25;;;;;;;7.90;4.10;;;;;;;;;;5015028;28;20026;-60
2021/11/03 03:24:10;;;;;;;6.40;4.60;;;;;;;;;;5016771;28;20041;-62
2021/11/03 03:26:55;;;;;;;8.65;4.35;;;;;;;;;;5017029;28;20036;-61
2021/11/03 03:29:41;;;;;;;7.05;4.63;;;;;;;;;;4998834;28;20033;-61
2021/11/03 03:32:27;;;;;;;10.05;5.05;;;;;;;;;;4990240;28;20065;-60
2021/11/03 03:35:14;;;;;;;7.63;4.82;;;;;;;;;;5015226;28;20029;-62
2021/11/03 03:37:59;;;;;;;5.38;3.40;;;;;;;;;;5006530;28;20067;-62
2021/11/03 03:40:45;;;;;;;8.85;4.32;;;;;;;;;;5015147;28;20577;-64
2021/11/03 03:43:30;;;;;;;6.32;4.38;;;;;;;;;;5015092;28;20053;-62
2021/11/03 03:46:16;;;;;;;8.48;4.28;;;;;;;;;;5016511;28;20044;-60
2021/11/03 03:49:01;;;;;;;7.10;3.90;;;;;;;;;;5014595;28;20120;-62
2021/11/03 03:51:46;;;;;;;6.47;3.90;;;;;;;;;;5012390;28;20030;-61
2021/11/03 03:54:32;;;;;;;6.63;4.00;;;;;;;;;;5012159;28;20029;-61
2021/11/03 03:57:17;;;;;;;6.30;3.75;;;;;;;;;;5010112;28;20071;-61
2021/11/03 04:00:08;;;;;;;4.30;2.83;;;;;;;;;;5016051;28;20033;-60
2021/11/03 04:02:53;;;;;;;5.57;3.88;;;;;;;;;;5016406;28;20358;-60
2021/11/03 04:05:38;;;;;;;6.65;3.50;;;;;;;;;;5014568;28;20068;-60
2021/11/03 04:08:24;;;;;;;10.65;4.50;;;;;;;;;;5011638;28;20041;-60
2021/11/03 04:11:09;;;;;;;6.72;3.95;;;;;;;;;;5014621;28;20483;-61
2021/11/03 04:13:54;;;;;;;5.32;3.28;;;;;;;;;;5014776;28;20056;-61
2021/11/03 04:16:40;;;;;;;7.47;4.28;;;;;;;;;;5012947;28;20029;-60
2021/11/03 04:19:25;;;;;;;5.95;3.58;;;;;;;;;;5013764;28;20033;-60
2021/11/03 04:22:10;;;;;;;6.38;3.65;;;;;;;;;;5015510;28;20504;-63
2021/11/03 04:24:56;;;;;;;6.55;4.40;;;;;;;;;;5014200;28;20033;-63
2021/11/03 04:27:41;;;;;;;7.32;3.95;;;;;;;;;;5014823;28;20036;-61
2021/11/03 04:30:26;;;;;;;7.13;3.88;;;;;;;;;;5010398;28;20030;-62
2021/11/03 04:33:13;;;;;;;6.30;4.30;;;;;;;;;;5014458;28;20464;-62
2021/11/03 04:35:58;;;;;;;8.10;4.55;;;;;;;;;;5013949;28;20036;-65
2021/11/03 04:38:43;;;;;;;6.90;3.42;;;;;;;;;;5012343;28;20067;-62
2021/11/03 04:41:28;;;;;;;7.93;4.90;;;;;;;;;;5014901;28;20112;-61
2021/11/03 04:44:14;;;;;;;9.02;4.20;;;;;;;;;;5012237;28;20041;-63
2021/11/03 04:47:00;;;;;;;7.10;4.43;;;;;;;;;;5009347;28;20029;-61
2021/11/03 04:49:45;;;;;;;6.15;4.15;;;;;;;;;;5012731;28;20057;-61
2021/11/03 04:52:31;;;;;;;7.10;4.32;;;;;;;;;;5014352;28;20037;-63
2021/11/03 04:55:16;;;;;;;7.22;4.40;;;;;;;;;;5013093;28;20045;-64
2021/11/03 04:58:01;;;;;;;7.93;3.92;;;;;;;;;;5024727;28;21501;-62
2021/11/03 05:00:48;;;;;;;9.27;4.47;;;;;;;;;;5014972;28;20025;-62
2021/11/03 05:03:34;;;;;;;6.40;4.10;;;;;;;;;;4999475;28;20473;-61
2021/11/03 05:06:21;;;;;;;10.73;3.90;;;;;;;;;;5014840;28;20032;-62
2021/11/03 05:09:08;;;;;;;12.73;4.63;;;;;;;;;;5015044;28;20032;-62
2021/11/03 05:11:53;;;;;;;6.70;4.00;;;;;;;;;;5012580;28;20480;-67
2021/11/03 05:14:38;;;;;;;7.60;4.10;;;;;;;;;;5009138;28;20485;-62
2021/11/03 05:17:24;;;;;;;7.10;4.70;;;;;;;;;;5013585;28;20033;-62
2021/11/03 05:20:09;;;;;;;7.10;5.03;;;;;;;;;;5018737;28;20030;-62
2021/11/03 05:22:54;;;;;;;8.82;5.25;;;;;;;;;;5006023;28;20029;-62
2021/11/03 05:25:40;;;;;;;6.32;4.13;;;;;;;;;;5012842;28;20041;-61
2021/11/03 05:28:26;;;;;;;9.70;5.15;;;;;;;;;;5010107;28;20036;-61
2021/11/03 05:31:11;;;;;;;7.72;4.40;;;;;;;;;;5014913;28;20211;-65
2021/11/03 05:33:57;;;;;;;8.98;4.50;;;;;;;;;;5012355;28;20175;-66
2021/11/03 05:36:42;;;;;;;8.10;4.38;;;;;;;;;;4996826;28;20044;-63
2021/11/03 05:39:27;;;;;;;7.82;4.55;;;;;;;;;;5011901;28;20034;-63
2021/11/03 05:42:12;;;;;;;8.50;5.10;;;;;;;;;;5006695;28;20028;-63
2021/11/03 05:44:58;;;;;;;20.77;13.32;;;;;;;;;;5009184;28;20068;-62
2021/11/03 05:47:43;;;;;;;7.95;4.20;;;;;;;;;;5010417;28;20029;-66
2021/11/03 05:50:32;;;;;;;8.80;4.20;;;;;;;;;;4999510;28;20040;-66
2021/11/03 05:53:17;;;;;;;8.25;4.05;;;;;;;;;;5013288;28;20515;-65
2021/11/03 05:56:03;;;;;;;7.28;4.47;;;;;;;;;;5014919;28;20040;-63
2021/11/03 05:58:49;;;;;;;8.25;4.22;;;;;;;;;;5013465;28;20124;-63
2021/11/03 06:01:34;;;;;;;9.88;4.65;;;;;;;;;;5010909;28;20061;-64
2021/11/03 06:04:19;;;;;;;10.60;4.65;;;;;;;;;;5013015;28;20532;-66
2021/11/03 06:07:05;;;;;;;6.18;4.43;;;;;;;;;;5008522;28;20022;-62
2021/11/03 06:09:50;;;;;;;6.38;3.92;;;;;;;;;;5012291;28;20508;-63
2021/11/03 06:12:35;;;;;;;11.88;4.70;;;;;;;;;;5013438;28;20057;-64
2021/11/03 06:15:22;;;;;;;7.38;4.43;;;;;;;;;;5006349;28;20472;-64
2021/11/03 06:18:08;;;;;;;8.43;4.20;;;;;;;;;;5006819;28;20065;-65
2021/11/03 06:20:53;;;;;;;10.68;4.22;;;;;;;;;;5007803;28;20034;-63
2021/11/03 06:23:39;;;;;;;9.35;5.15;;;;;;;;;;5004334;28;20026;-64
2021/11/03 06:26:24;;;;;;;5.03;3.42;;;;;;;;;;5006402;28;20384;-65
2021/11/03 06:29:10;;;;;;;5.35;3.55;;;;;;;;;;5007647;28;20048;-64
2021/11/03 06:31:55;;;;;;;5.40;3.42;;;;;;;;;;5011506;28;20029;-63
2021/11/03 06:34:40;;;;;;;7.10;3.75;;;;;;;;;;5004089;28;20471;-64
2021/11/03 06:37:26;;;;;;;5.78;3.55;;;;;;;;;;5005043;28;20530;-62
2021/11/03 06:40:13;;;;;;;4.53;3.13;;;;;;;;;;5010966;28;20041;-65
2021/11/03 06:42:58;;;;;;;7.97;4.05;;;;;;;;;;5007669;28;20108;-63
2021/11/03 06:45:43;;;;;;;8.85;4.18;;;;;;;;;;4995568;28;20022;-60
2021/11/03 06:48:28;;;;;;;12.25;3.67;;;;;;;;;;5000235;28;20037;-60
2021/11/03 06:51:14;;;;;;;6.88;4.32;;;;;;;;;;5005139;28;20041;-60
2021/11/03 06:54:00;;;;;;;4.90;3.17;;;;;;;;;;5013638;28;20109;-59
2021/11/03 06:56:45;;;;;;;8.15;3.92;;;;;;;;;;5012983;28;20032;-61
2021/11/03 06:59:31;;;;;;;8.38;4.00;;;;;;;;;;5003117;28;20736;-65
2021/11/03 07:02:16;;;;;;;8.77;4.20;;;;;;;;;;4998880;28;20036;-66
2021/11/03 07:05:02;;;;;;;6.97;4.28;;;;;;;;;;5006832;28;20051;-60
2021/11/03 07:07:47;;;;;;;6.63;4.28;;;;;;;;;;4996192;28;20037;-60
2021/11/03 07:10:34;;;;;;;11.30;5.60;;;;;;;;;;5006011;28;20037;-62
2021/11/03 07:13:21;;;;;;;22.95;14.40;;;;;;;;;;5002589;28;20029;-61
2021/11/03 07:16:06;;;;;;;15.38;9.25;;;;;;;;;;5004511;28;20057;-62
2021/11/03 07:18:51;;;;;;;5.82;4.03;;;;;;;;;;5013690;28;20600;-65
2021/11/03 07:21:36;;;;;;;7.40;4.82;;;;;;;;;;5008682;28;20419;-62
2021/11/03 07:24:22;;;;;;;6.40;4.25;;;;;;;;;;5008923;28;20041;-63
2021/11/03 07:27:07;;;;;;;8.52;4.45;;;;;;;;;;5007946;28;20022;-64
2021/11/03 07:29:52;;;;;;;8.48;4.38;;;;;;;;;;5005678;28;20033;-63
2021/11/03 07:32:37;;;;;;;6.20;3.83;;;;;;;;;;5010380;28;20445;-63
2021/11/03 07:35:23;;;;;;;8.95;4.60;;;;;;;;;;5007839;28;20084;-64
2021/11/03 07:38:10;;;;;;;10.05;4.60;;;;;;;;;;5011738;28;20041;-63
2021/11/03 07:40:56;;;;;;;6.00;4.15;;;;;;;;;;5010942;28;20449;-63
2021/11/03 07:43:43;;;;;;;8.55;5.05;;;;;;;;;;5013654;28;20446;-62
2021/11/03 07:46:28;;;;;;;6.78;4.05;;;;;;;;;;5008693;28;20033;-62
2021/11/03 07:49:13;;;;;;;9.48;4.70;;;;;;;;;;5019805;28;20080;-61
2021/11/03 07:51:59;;;;;;;10.63;5.05;;;;;;;;;;5017088;28;20029;-61
2021/11/03 07:54:44;;;;;;;8.45;4.57;;;;;;;;;;5015038;28;20029;-61
2021/11/03 07:57:29;;;;;;;6.45;4.15;;;;;;;;;;5010893;28;20030;-62
2021/11/03 08:00:23;;;;;;;7.18;4.10;;;;;;;;;;5001763;28;20614;-63
2021/11/03 08:03:08;;;;;;;6.90;4.30;;;;;;;;;;5013275;28;20103;-64
2021/11/03 08:05:54;;;;;;;25.67;16.77;;;;;;;;;;5010531;28;20025;-63
2021/11/03 08:08:43;;;;;;;25.92;19.45;;;;;;;;;;5014743;28;20037;-63
2021/11/03 08:11:36;;;;;;;9.13;5.10;;;;;;;;;;5013088;28;20037;-63
2021/11/03 08:14:26;;;;;;;9.65;3.50;;;;;;;;;;5009336;28;20628;-65
2021/11/03 08:17:13;;;;;;;9.88;4.25;;;;;;;;;;5004891;28;20033;-63
2021/11/03 08:20:03;;;;;;;7.25;4.30;;;;;;;;;;5015022;28;20092;-62
2021/11/03 08:22:48;;;;;;;4.22;3.30;;;;;;;;;;5012500;28;20476;-61
2021/11/03 08:25:34;;;;;;;6.45;4.28;;;;;;;;;;5007536;28;20048;-62
2021/11/03 08:28:19;;;;;;;10.75;3.83;;;;;;;;;;5016822;28;20029;-62
2021/11/03 08:31:04;;;;;;;6.53;4.25;;;;;;;;;;5010494;28;20119;-59
2021/11/03 08:33:50;;;;;;;6.20;3.78;;;;;;;;;;5015491;28;20469;-65
2021/11/03 08:36:35;;;;;;;8.63;4.60;;;;;;;;;;5014335;28;20436;-63
2021/11/03 08:39:20;;;;;;;8.75;4.57;;;;;;;;;;5004362;28;20086;-63
2021/11/03 08:42:06;;;;;;;6.95;3.85;;;;;;;;;;5009786;28;20030;-62
2021/11/03 08:44:51;;;;;;;7.05;4.10;;;;;;;;;;5012402;28;20041;-61
2021/11/03 08:47:38;;;;;;;5.80;3.67;;;;;;;;;;5008599;28;20108;-62
2021/11/03 08:50:25;;;;;;;14.73;10.93;;;;;;;;;;5007071;28;20032;-62
2021/11/03 08:53:11;;;;;;;11.20;7.35;;;;;;;;;;4999768;28;20049;-66
2021/11/03 08:55:56;;;;;;;7.40;3.70;;;;;;;;;;5008844;28;20159;-64
2021/11/03 08:58:41;;;;;;;6.70;4.13;;;;;;;;;;5013587;28;20045;-62
2021/11/03 09:01:28;;;;;;;6.78;4.00;;;;;;;;;;5007928;28;20124;-61
2021/11/03 09:04:13;;;;;;;7.88;4.05;;;;;;;;;;5014123;28;20037;-61
2021/11/03 09:06:58;;;;;;;7.30;4.35;;;;;;;;;;5008478;28;20037;-61
2021/11/03 09:09:47;;;;;;;8.10;3.88;;;;;;;;;;4999301;28;20025;-64
2021/11/03 09:12:32;;;;;;;5.05;3.88;;;;;;;;;;5013893;28;20036;-63
2021/11/03 09:15:18;;;;;;;7.72;3.75;;;;;;;;;;5014058;28;20060;-63
2021/11/03 09:18:04;;;;;;;6.28;3.83;;;;;;;;;;5013333;28;20038;-64
2021/11/03 09:20:50;;;;;;;7.13;3.42;;;;;;;;;;5005887;28;20028;-62
2021/11/03 09:23:36;;;;;;;6.15;3.75;;;;;;;;;;5008877;28;20037;-64
2021/11/03 09:26:22;;;;;;;6.10;3.25;;;;;;;;;;5013981;28;20041;-63
2021/11/03 09:29:07;;;;;;;8.15;3.88;;;;;;;;;;5011717;28;20029;-61
2021/11/03 09:31:52;;;;;;;6.10;3.40;;;;;;;;;;5013689;28;20022;-64
2021/11/03 09:34:39;;;;;;;5.95;3.33;;;;;;;;;;5008613;28;20456;-63
2021/11/03 09:37:25;;;;;;;26.67;20.45;;;;;;;;;;5013602;28;20067;-63
2021/11/03 09:40:24;;;;;;;15.52;10.32;;;;;;;;;;5012979;28;20049;-67
2021/11/03 09:43:26;;;;;;;5.32;3.65;;;;;;;;;;5008715;28;20037;-62
2021/11/03 09:46:27;;;;;;;5.13;3.35;;;;;;;;;;5011859;28;20033;-61
2021/11/03 09:49:19;;;;;;;4.85;2.72;;;;;;;;;;5015264;28;20064;-64
2021/11/03 09:52:11;;;;;;;4.75;2.97;;;;;;;;;;4992536;28;20813;-62
2021/11/03 09:54:58;;;;;;;7.00;3.20;;;;;;;;;;5009325;28;20056;-61
2021/11/03 09:57:51;;;;;;;5.82;2.80;;;;;;;;;;5003229;28;20022;-66
2021/11/03 10:00:47;;;;;;;4.60;3.25;;;;;;;;;;5011422;28;20041;-63
2021/11/03 10:03:33;;;;;;;4.88;2.53;;;;;;;;;;5003863;28;20423;-65
2021/11/03 10:06:21;;;;;;;4.60;2.80;;;;;;;;;;5013280;28;20037;-64
2021/11/03 10:09:07;;;;;;;4.00;2.80;;;;;;;;;;5013260;28;20055;-65
2021/11/03 10:11:53;;;;;;;4.57;2.70;;;;;;;;;;5009818;28;20037;-65
2021/11/03 10:14:38;;;;;;;5.00;2.97;;;;;;;;;;5010862;28;20072;-64
2021/11/03 10:17:25;;;;;;;4.88;2.80;;;;;;;;;;5005110;28;20076;-64
2021/11/03 10:20:18;;;;;;;10.02;2.40;;;;;;;;;;4998979;28;20034;-63
2021/11/03 10:23:16;;;;;;;5.18;3.10;;;;;;;;;;5010091;28;20940;-63
2021/11/03 10:26:06;;;;;;;3.80;2.13;;;;;;;;;;5012802;28;20366;-63
2021/11/03 10:29:05;;;;;;;4.65;2.08;;;;;;;;;;5011404;28;20033;-62
2021/11/03 10:31:50;;;;;;;43.05;31.83;;;;;;;;;;4990031;28;20037;-63
2021/11/03 10:34:36;;;;;;;21.23;15.05;;;;;;;;;;5005788;28;20033;-60
2021/11/03 10:37:23;;;;;;;14.45;9.05;;;;;;;;;;5004840;28;20037;-61
2021/11/03 10:40:22;;;;;;;8.95;4.30;;;;;;;;;;4996781;28;20029;-63
2021/11/03 10:43:19;;;;;;;6.97;3.10;;;;;;;;;;5004858;28;20025;-62
2021/11/03 10:46:21;;;;;;;7.68;3.38;;;;;;;;;;5005188;28;20125;-60
2021/11/03 10:49:08;;;;;;;6.82;3.63;;;;;;;;;;5011135;28;20057;-60
2021/11/03 10:52:20;;;;;;;6.95;3.60;;;;;;;;;;5008777;28;20037;-61
2021/11/03 10:55:14;;;;;;;5.82;2.70;;;;;;;;;;5009594;28;20060;-61
2021/11/03 10:58:07;;;;;;;4.13;2.53;;;;;;;;;;5014234;28;20029;-60
2021/11/03 11:01:02;;;;;;;4.40;2.30;;;;;;;;;;5015489;28;20029;-62
2021/11/03 11:03:50;;;;;;;6.95;2.47;;;;;;;;;;5000129;28;20523;-62
2021/11/03 11:06:41;;;;;;;7.50;2.83;;;;;;;;;;5014469;28;20044;-63
2021/11/03 11:09:27;;;;;;;4.72;2.33;;;;;;;;;;5030274;28;20029;-63
2021/11/03 11:12:23;;;;;;;3.78;2.08;;;;;;;;;;5016963;28;20029;-63
2021/11/03 11:15:15;;;;;;;5.68;2.63;;;;;;;;;;5017500;28;20038;-66
2021/11/03 11:18:03;;;;;;;27.83;19.63;;;;;;;;;;5017010;28;20033;-62
2021/11/03 11:20:51;;;;;;;24.92;15.10;;;;;;;;;;5015291;28;20034;-64
2021/11/03 11:23:39;;;;;;;8.25;4.00;;;;;;;;;;5017748;28;20189;-62
2021/11/03 11:26:43;;;;;;;8.57;2.92;;;;;;;;;;5014660;28;20037;-60
2021/11/03 11:29:29;;;;;;;37.33;31.40;;;;;;;;;;5016560;28;20687;-62
2021/11/03 11:32:28;;;;;;;42.13;23.35;;;;;;;;;;5009760;28;20041;-61
2021/11/03 11:35:19;;;;;;;9.88;6.60;;;;;;;;;;5014755;28;20181;-62
2021/11/03 11:38:11;;;;;;;7.13;3.58;;;;;;;;;;5004886;28;20124;-66
2021/11/03 11:40:59;;;;;;;4.70;2.70;;;;;;;;;;5016048;28;20025;-65
2021/11/03 11:43:47;;;;;;;5.25;2.40;;;;;;;;;;5010464;28;20021;-65
2021/11/03 11:46:33;;;;;;;4.60;2.80;;;;;;;;;;5008649;28;20148;-62
2021/11/03 11:49:22;;;;;;;5.70;2.40;;;;;;;;;;5013969;28;20025;-62
2021/11/03 11:52:18;;;;;;;3.72;2.35;;;;;;;;;;5007579;28;20042;-62
2021/11/03 11:55:13;;;;;;;6.30;2.10;;;;;;;;;;5004115;28;20072;-62
2021/11/03 11:57:58;;;;;;;9.55;3.00;;;;;;;;;;4999033;28;20029;-62
2021/11/03 12:01:03;;;;;;;3.95;2.10;;;;;;;;;;5008864;28;20030;-63
2021/11/03 12:04:11;;;;;;;6.70;2.08;;;;;;;;;;5010282;28;20484;-63
2021/11/03 12:06:57;;;;;;;8.55;2.13;;;;;;;;;;5027132;28;20044;-63
2021/11/03 12:09:45;;;;;;;5.13;1.80;;;;;;;;;;5007752;28;20032;-63
2021/11/03 12:12:31;;;;;;;6.70;2.22;;;;;;;;;;5007733;28;20052;-64
2021/11/03 12:15:36;;;;;;;4.78;2.10;;;;;;;;;;4996199;28;22015;-62
2021/11/03 12:18:21;;;;;;;5.32;2.03;;;;;;;;;;5003679;28;20072;-64
2021/11/03 12:21:12;;;;;;;3.80;1.70;;;;;;;;;;5002628;28;20025;-62
2021/11/03 12:24:07;;;;;;;4.72;1.80;;;;;;;;;;5010187;28;20116;-67
2021/11/03 12:27:12;;;;;;;4.15;1.67;;;;;;;;;;5011335;28;20021;-63
2021/11/03 12:29:59;;;;;;;4.43;2.08;;;;;;;;;;5015512;28;20516;-64
2021/11/03 12:32:44;;;;;;;3.65;1.75;;;;;;;;;;5012069;28;20029;-63
2021/11/03 12:35:33;;;;;;;4.45;1.77;;;;;;;;;;5006889;28;20128;-64
2021/11/03 12:38:22;;;;;;;2.20;1.40;;;;;;;;;;5013615;28;20465;-63
2021/11/03 12:41:15;;;;;;;4.38;2.40;;;;;;;;;;5005420;28;20033;-62
2021/11/03 12:44:01;;;;;;;2.25;1.55;;;;;;;;;;5015650;28;20194;-62
2021/11/03 12:46:47;;;;;;;2.83;1.45;;;;;;;;;;5012304;28;20037;-60
2021/11/03 12:49:32;;;;;;;3.20;1.80;;;;;;;;;;4999094;28;20036;-62
2021/11/03 12:52:23;;;;;;;2.60;1.48;;;;;;;;;;5009323;28;20022;-62
2021/11/03 12:55:42;;;;;;;4.25;1.40;;;;;;;;;;5012027;28;20382;-66
2021/11/03 12:58:27;;;;;;;8.13;1.85;;;;;;;;;;5009720;28;20132;-61
2021/11/03 13:01:16;;;;;;;2.50;1.30;;;;;;;;;;5005874;28;20320;-61
2021/11/03 13:04:03;;;;;;;3.25;1.60;;;;;;;;;;5006416;28;20037;-60
2021/11/03 13:06:54;;;;;;;4.40;1.50;;;;;;;;;;5013797;28;20029;-62
2021/11/03 13:09:42;;;;;;;3.53;1.30;;;;;;;;;;5015545;28;20067;-62
2021/11/03 13:12:30;;;;;;;4.50;1.75;;;;;;;;;;5013656;28;20044;-61
2021/11/03 13:15:20;;;;;;;3.08;1.70;;;;;;;;;;5013094;28;20558;-61
2021/11/03 13:18:12;;;;;;;3.33;1.50;;;;;;;;;;5014941;28;20846;-60
2021/11/03 13:20:59;;;;;;;4.57;1.67;;;;;;;;;;5002702;28;20034;-60
2021/11/03 13:23:44;;;;;;;2.80;1.40;;;;;;;;;;4999408;28;20033;-60
2021/11/03 13:26:32;;;;;;;4.43;1.52;;;;;;;;;;5013777;28;20065;-62
2021/11/03 13:29:20;;;;;;;6.00;1.50;;;;;;;;;;5001669;28;20751;-60
2021/11/03 13:32:05;;;;;;;4.85;1.58;;;;;;;;;;5012419;28;20032;-61
2021/11/03 13:34:53;;;;;;;4.00;1.80;;;;;;;;;;4989974;28;20034;-61
2021/11/03 13:37:50;;;;;;;4.63;1.63;;;;;;;;;;5014388;28;20036;-61
2021/11/03 13:40:38;;;;;;;4.22;1.38;;;;;;;;;;5009869;28;20030;-62
2021/11/03 13:43:24;;;;;;;4.90;1.83;;;;;;;;;;5014173;28;20041;-62
2021/11/03 13:46:23;;;;;;;4.28;1.73;;;;;;;;;;5014635;28;20029;-61
2021/11/03 13:49:13;;;;;;;5.53;1.75;;;;;;;;;;5025404;28;20033;-59
2021/11/03 13:51:58;;;;;;;3.08;1.98;;;;;;;;;;5008238;28;20025;-62
2021/11/03 13:54:54;;;;;;;6.95;4.25;;;;;;;;;;5014494;28;20033;-60
2021/11/03 13:57:40;;;;;;;17.60;12.32;;;;;;;;;;4998463;28;20112;-60
2021/11/03 14:00:28;;;;;;;4.00;2.42;;;;;;;;;;5008907;28;20084;-61
2021/11/03 14:03:24;;;;;;;5.70;2.00;;;;;;;;;;5012795;28;20029;-62
2021/11/03 14:06:09;;;;;;;3.38;1.83;;;;;;;;;;5002871;28;20026;-60
2021/11/03 14:08:55;;;;;;;2.75;1.60;;;;;;;;;;4998923;28;20030;-62
2021/11/03 14:11:41;;;;;;;3.17;2.00;;;;;;;;;;4994288;28;20037;-61
2021/11/03 14:14:28;;;;;;;3.85;2.50;;;;;;;;;;5013102;28;20049;-61
2021/11/03 14:17:13;;;;;;;5.38;1.83;;;;;;;;;;5011779;28;20033;-62
2021/11/03 14:20:00;;;;;;;3.05;1.58;;;;;;;;;;4994778;28;20240;-61
2021/11/03 14:22:45;;;;;;;3.70;1.08;;;;;;;;;;4999958;28;20030;-63
2021/11/03 14:25:32;;;;;;;3.50;1.83;;;;;;;;;;5010305;28;20202;-61
2021/11/03 14:28:19;;;;;;;3.10;1.20;;;;;;;;;;5008871;28;20578;-61
2021/11/03 14:31:19;;;;;;;2.13;1.50;;;;;;;;;;5017516;28;20071;-63
2021/11/03 14:34:06;;;;;;;4.30;1.38;;;;;;;;;;5010844;28;20084;-61
2021/11/03 14:36:52;;;;;;;2.95;1.50;;;;;;;;;;5017782;28;20057;-62
2021/11/03 14:39:39;;;;;;;2.38;1.40;;;;;;;;;;5012074;28;20133;-61
2021/11/03 14:42:24;;;;;;;9.40;5.07;;;;;;;;;;5014125;28;20043;-63
2021/11/03 14:45:09;;;;;;;9.13;5.35;;;;;;;;;;4998991;28;20032;-61
2021/11/03 14:47:55;;;;;;;3.15;1.45;;;;;;;;;;5011013;28;20036;-61
2021/11/03 14:50:40;;;;;;;1.83;1.13;;;;;;;;;;5015633;28;20092;-63
2021/11/03 14:53:27;;;;;;;6.32;1.40;;;;;;;;;;5017099;28;20104;-61
2021/11/03 14:56:13;;;;;;;4.22;1.25;;;;;;;;;;5007588;28;20040;-63
2021/11/03 14:58:58;;;;;;;2.53;0.98;;;;;;;;;;5015189;28;20040;-61
2021/11/03 15:01:46;;;;;;;2.50;1.08;;;;;;;;;;5016076;28;20362;-62
2021/11/03 15:04:35;;;;;;;2.60;0.90;;;;;;;;;;5015501;28;20408;-63
2021/11/03 15:07:20;;;;;;;1.23;0.95;;;;;;;;;;5016796;28;20029;-62
2021/11/03 15:10:06;;;;;;;1.88;1.45;;;;;;;;;;5011924;28;20033;-64
2021/11/03 15:12:52;;;;;;;2.53;1.23;;;;;;;;;;5011918;28;20037;-65
2021/11/03 15:15:38;;;;;;;3.55;1.08;;;;;;;;;;4993670;28;20394;-64
2021/11/03 15:18:25;;;;;;;6.13;3.67;;;;;;;;;;5006960;28;20030;-63
2021/11/03 15:21:10;;;;;;;6.20;2.85;;;;;;;;;;5003036;28;20077;-63
2021/11/03 15:23:56;;;;;;;5.85;1.95;;;;;;;;;;5009121;28;20025;-61
2021/11/03 15:26:41;;;;;;;2.90;1.10;;;;;;;;;;5006826;28;20030;-62
2021/11/03 15:29:27;;;;;;;2.35;1.10;;;;;;;;;;5019265;28;20666;-63
2021/11/03 15:32:16;;;;;;;3.17;1.20;;;;;;;;;;5003543;28;20592;-64
2021/11/03 15:35:02;;;;;;;1.70;1.13;;;;;;;;;;4997091;28;20225;-64
2021/11/03 15:37:47;;;;;;;3.40;1.17;;;;;;;;;;5009277;28;20049;-62
2021/11/03 15:40:36;;;;;;;3.05;1.27;;;;;;;;;;5018379;28;20121;-63
2021/11/03 15:43:24;;;;;;;2.13;1.20;;;;;;;;;;5016358;28;20092;-63
2021/11/03 15:46:15;;;;;;;2.08;1.17;;;;;;;;;;5019083;28;20134;-64
2021/11/03 15:49:10;;;;;;;1.65;1.10;;;;;;;;;;5013861;28;20428;-65
2021/11/03 15:51:57;;;;;;;3.10;1.15;;;;;;;;;;5009142;28;20117;-63
2021/11/03 15:54:44;;;;;;;5.20;1.45;;;;;;;;;;5006221;28;20058;-64
2021/11/03 15:57:30;;;;;;;4.25;1.60;;;;;;;;;;5009215;28;20113;-63
2021/11/03 16:00:17;;;;;;;15.95;11.73;;;;;;;;;;5020876;28;20525;-62
2021/11/03 16:03:10;;;;;;;18.55;11.00;;;;;;;;;;5016516;28;20109;-62
2021/11/03 16:05:56;;;;;;;7.30;3.50;;;;;;;;;;5008639;28;20484;-64
2021/11/03 16:08:41;;;;;;;4.93;2.15;;;;;;;;;;5006696;28;20054;-63
2021/11/03 16:11:26;;;;;;;4.15;1.55;;;;;;;;;;5009195;28;20088;-65
2021/11/03 16:14:13;;;;;;;4.88;1.58;;;;;;;;;;5011038;28;20431;-66
2021/11/03 16:16:59;;;;;;;3.67;1.73;;;;;;;;;;5016351;28;20048;-62
2021/11/03 16:19:45;;;;;;;4.22;1.70;;;;;;;;;;5014174;28;20069;-62
2021/11/03 16:22:34;;;;;;;5.63;1.70;;;;;;;;;;5010105;28;20689;-61
2021/11/03 16:25:26;;;;;;;2.30;1.40;;;;;;;;;;5014053;28;20044;-61
2021/11/03 16:28:16;;;;;;;3.05;1.58;;;;;;;;;;5009177;28;20756;-64
2021/11/03 16:31:01;;;;;;;;;;;;;;;;;;5012678;28;20068;-62
2021/11/03 16:33:46;;;;;;;3.50;1.63;;;;;;;;;;5014697;28;19916;-63
2021/11/03 16:36:31;;;;;;;5.35;1.65;;;;;;;;;;5009826;28;20321;-64
2021/11/03 16:39:19;;;;;;;17.00;9.05;;;;;;;;;;5008971;28;20037;-63
2021/11/03 16:42:18;;;;;;;10.20;6.38;;;;;;;;;;5015193;28;20033;-62